Dimitris — SVA3557 — position and weather

sailwx.info

Track history (hours):
 
Tides and Currents Weather Stations Pressure Air Temp Water Temp Dewpoint Dewpoint Depression Visibility Wind Speed Wind Dir Waves Ship Positions

Dimitris

Last reported at 2017-Oct-19 14:56 UTC. Time now 2017-Oct-19 15:06 UTC.
Position N 38°11' E 024°08'.

Length 76 m; draft 2.4 m.

Type: Passenger vessel. MMSI: 239710200.

Date/timePositionNaut miles runAvg speedWind from/ knotsBaromVisibWave heightAir tempDewpointWater temp
2017-Oct-19 14:56N 38°11' E 024°08'4 5.7
2017-Oct-19 14:16N 38°11' E 024°12'3 9.5
2017-Oct-19 14:00N 38°11' E 024°09'2 2.2
2017-Oct-19 13:01N 38°11' E 024°06'010.5
2017-Oct-19 13:00N 38°11' E 024°07'4 7.0
2017-Oct-19 12:21N 38°11' E 024°12'5 3.7
2017-Oct-19 11:05N 38°11' E 024°06'110.1
2017-Oct-19 10:58N 38°11' E 024°08'4 4.4
2017-Oct-19 10:08N 38°11' E 024°12'0 0.0
2017-Oct-18 10:15N 38°11' E 024°12'410.2
2017-Oct-18 09:53N 38°11' E 024°08'1 1.4
2017-Oct-18 09:03N 38°11' E 024°06'110.2
2017-Oct-18 08:58N 38°11' E 024°07'4 6.2
2017-Oct-18 08:20N 38°11' E 024°12'5 3.3
2017-Oct-18 06:49N 38°11' E 024°06'5 9.8
2017-Oct-18 06:20N 38°11' E 024°12'0 0.2
2017-Oct-18 05:44N 38°11' E 024°12'3 9.8
2017-Oct-18 05:28N 38°11' E 024°09'2 1.6
2017-Oct-18 04:04N 38°11' E 024°06'1 9.9
2017-Oct-18 03:58N 38°11' E 024°08'4 0.3
2017-Oct-17 16:17N 38°11' E 024°12'0 0.0
2017-Oct-16 10:17N 38°11' E 024°12'4 9.6
2017-Oct-16 09:54N 38°11' E 024°08'1 1.3
2017-Oct-16 09:04N 38°11' E 024°06'110.2
2017-Oct-16 08:59N 38°11' E 024°07'4 5.3
2017-Oct-16 08:15N 38°11' E 024°12'3 9.9
2017-Oct-16 07:55N 38°11' E 024°08'1 1.3
2017-Oct-16 06:49N 38°11' E 024°06'5 9.8
2017-Oct-16 06:21N 38°11' E 024°12'0 0.1
2017-Oct-16 05:45N 38°11' E 024°12'3 9.9
2017-Oct-16 05:29N 38°11' E 024°09'2 1.4
2017-Oct-16 04:05N 38°11' E 024°06'1 9.8
2017-Oct-16 04:00N 38°11' E 024°08'4 0.4
2017-Oct-15 17:53N 38°11' E 024°12'5 4.4
2017-Oct-15 16:50N 38°11' E 024°06'510.3
2017-Oct-15 16:23N 38°11' E 024°12'0 0.1
2017-Oct-15 15:38N 38°11' E 024°12'5 4.2
2017-Oct-15 14:33N 38°11' E 024°06'5 1.2
2017-Oct-15 10:36N 38°11' E 024°12'3 9.5
2017-Oct-15 10:20N 38°11' E 024°09'2 1.9
2017-Oct-15 09:13N 38°11' E 024°06'210.2
2017-Oct-15 09:00N 38°11' E 024°09'3 0.1
2017-Oct-14 10:17N 38°11' E 024°12'5 3.9
2017-Oct-14 09:03N 38°11' E 024°06'010.0
2017-Oct-14 09:00N 38°11' E 024°07'2 1.6
2017-Oct-14 08:00N 38°11' E 024°09'2 1.6
2017-Oct-14 06:48N 38°11' E 024°06'5 9.6
2017-Oct-14 06:19N 38°11' E 024°12'3 4.8
2017-Oct-14 05:47N 38°11' E 024°09'2 1.4
2017-Oct-14 04:19N 38°11' E 024°06'5 9.2
2017-Oct-14 03:49N 38°11' E 024°12'2 0.3
2017-Oct-13 18:30N 38°11' E 024°09'2 1.7
2017-Oct-13 17:16N 38°11' E 024°06'510.0
2017-Oct-13 16:48N 38°11' E 024°12'5 2.6
2017-Oct-13 15:02N 38°11' E 024°06'010.3
2017-Oct-13 14:59N 38°11' E 024°07'4 6.0
2017-Oct-13 14:17N 38°11' E 024°12'3 9.3
2017-Oct-13 14:00N 38°11' E 024°09'2 2.2
2017-Oct-13 13:03N 38°11' E 024°06'110.3
2017-Oct-13 12:58N 38°11' E 024°07'4 6.3
2017-Oct-13 12:21N 38°11' E 024°12'4 9.4
2017-Oct-13 11:57N 38°11' E 024°08'1 1.1
2017-Oct-13 11:02N 38°11' E 024°06'110.1
2017-Oct-13 10:57N 38°11' E 024°07'4 8.7
2017-Oct-13 10:30N 38°11' E 024°12'5 0.2
2017-Oct-12 09:02N 38°11' E 024°06'0 9.9
2017-Oct-12 09:01N 38°11' E 024°07'4 6.1
2017-Oct-12 08:17N 38°11' E 024°12'310.2
2017-Oct-12 07:57N 38°11' E 024°08'1 1.2
2017-Oct-12 06:49N 38°11' E 024°06'5 9.6
2017-Oct-12 06:20N 38°11' E 024°12'0 0.0
2017-Oct-10 10:14N 38°11' E 024°12'310.0
2017-Oct-10 09:59N 38°11' E 024°09'2 2.1
2017-Oct-10 09:02N 38°11' E 024°07'010.1
2017-Oct-10 09:00N 38°11' E 024°07'2 1.7
2017-Oct-10 07:58N 38°11' E 024°09'2 1.9
2017-Oct-10 06:49N 38°11' E 024°06'5 9.7
2017-Oct-10 06:19N 38°11' E 024°12'2 2.9
2017-Oct-10 05:29N 38°11' E 024°09'2 1.6
2017-Oct-10 04:03N 38°11' E 024°06'110.0
2017-Oct-10 04:00N 38°11' E 024°07'4 0.4
2017-Oct-09 16:24N 38°11' E 024°12'4 9.9
2017-Oct-09 15:59N 38°11' E 024°07'0 0.3
2017-Oct-09 15:00N 38°11' E 024°07'  
Track history (hours):
 
Tides and Currents Weather Stations Pressure Air Temp Water Temp Dewpoint Dewpoint Depression Visibility Wind Speed Wind Dir Waves Ship Positions

Dimitris

Last reported at 2017-Oct-19 14:56 UTC. Time now 2017-Oct-19 15:06 UTC.
Position N 38°11' E 024°08'.

Length 76 m; draft 2.4 m.

Type: Passenger vessel. MMSI: 239710200.

Date/timePositionNaut miles runAvg speedWind from/ knotsBaromVisibWave heightAir tempDewpointWater temp
2017-Oct-19 14:56N 38°11' E 024°08'4 5.7
2017-Oct-19 14:16N 38°11' E 024°12'3 9.5
2017-Oct-19 14:00N 38°11' E 024°09'2 2.2
2017-Oct-19 13:01N 38°11' E 024°06'010.5
2017-Oct-19 13:00N 38°11' E 024°07'4 7.0
2017-Oct-19 12:21N 38°11' E 024°12'5 3.7
2017-Oct-19 11:05N 38°11' E 024°06'110.1
2017-Oct-19 10:58N 38°11' E 024°08'4 4.4
2017-Oct-19 10:08N 38°11' E 024°12'0 0.0
2017-Oct-18 10:15N 38°11' E 024°12'410.2
2017-Oct-18 09:53N 38°11' E 024°08'1 1.4
2017-Oct-18 09:03N 38°11' E 024°06'110.2
2017-Oct-18 08:58N 38°11' E 024°07'4 6.2
2017-Oct-18 08:20N 38°11' E 024°12'5 3.3
2017-Oct-18 06:49N 38°11' E 024°06'5 9.8
2017-Oct-18 06:20N 38°11' E 024°12'0 0.2
2017-Oct-18 05:44N 38°11' E 024°12'3 9.8
2017-Oct-18 05:28N 38°11' E 024°09'2 1.6
2017-Oct-18 04:04N 38°11' E 024°06'1 9.9
2017-Oct-18 03:58N 38°11' E 024°08'4 0.3
2017-Oct-17 16:17N 38°11' E 024°12'0 0.0
2017-Oct-16 10:17N 38°11' E 024°12'4 9.6
2017-Oct-16 09:54N 38°11' E 024°08'1 1.3
2017-Oct-16 09:04N 38°11' E 024°06'110.2
2017-Oct-16 08:59N 38°11' E 024°07'4 5.3
2017-Oct-16 08:15N 38°11' E 024°12'3 9.9
2017-Oct-16 07:55N 38°11' E 024°08'1 1.3
2017-Oct-16 06:49N 38°11' E 024°06'5 9.8
2017-Oct-16 06:21N 38°11' E 024°12'0 0.1
2017-Oct-16 05:45N 38°11' E 024°12'3 9.9
2017-Oct-16 05:29N 38°11' E 024°09'2 1.4
2017-Oct-16 04:05N 38°11' E 024°06'1 9.8
2017-Oct-16 04:00N 38°11' E 024°08'4 0.4
2017-Oct-15 17:53N 38°11' E 024°12'5 4.4
2017-Oct-15 16:50N 38°11' E 024°06'510.3
2017-Oct-15 16:23N 38°11' E 024°12'0 0.1
2017-Oct-15 15:38N 38°11' E 024°12'5 4.2
2017-Oct-15 14:33N 38°11' E 024°06'5 1.2
2017-Oct-15 10:36N 38°11' E 024°12'3 9.5
2017-Oct-15 10:20N 38°11' E 024°09'2 1.9
2017-Oct-15 09:13N 38°11' E 024°06'210.2
2017-Oct-15 09:00N 38°11' E 024°09'3 0.1
2017-Oct-14 10:17N 38°11' E 024°12'5 3.9
2017-Oct-14 09:03N 38°11' E 024°06'010.0
2017-Oct-14 09:00N 38°11' E 024°07'2 1.6
2017-Oct-14 08:00N 38°11' E 024°09'2 1.6
2017-Oct-14 06:48N 38°11' E 024°06'5 9.6
2017-Oct-14 06:19N 38°11' E 024°12'3 4.8
2017-Oct-14 05:47N 38°11' E 024°09'2 1.4
2017-Oct-14 04:19N 38°11' E 024°06'5 9.2
2017-Oct-14 03:49N 38°11' E 024°12'2 0.3
2017-Oct-13 18:30N 38°11' E 024°09'2 1.7
2017-Oct-13 17:16N 38°11' E 024°06'510.0
2017-Oct-13 16:48N 38°11' E 024°12'5 2.6
2017-Oct-13 15:02N 38°11' E 024°06'010.3
2017-Oct-13 14:59N 38°11' E 024°07'4 6.0
2017-Oct-13 14:17N 38°11' E 024°12'3 9.3
2017-Oct-13 14:00N 38°11' E 024°09'2 2.2
2017-Oct-13 13:03N 38°11' E 024°06'110.3
2017-Oct-13 12:58N 38°11' E 024°07'4 6.3
2017-Oct-13 12:21N 38°11' E 024°12'4 9.4
2017-Oct-13 11:57N 38°11' E 024°08'1 1.1
2017-Oct-13 11:02N 38°11' E 024°06'110.1
2017-Oct-13 10:57N 38°11' E 024°07'4 8.7
2017-Oct-13 10:30N 38°11' E 024°12'5 0.2
2017-Oct-12 09:02N 38°11' E 024°06'0 9.9
2017-Oct-12 09:01N 38°11' E 024°07'4 6.1
2017-Oct-12 08:17N 38°11' E 024°12'310.2
2017-Oct-12 07:57N 38°11' E 024°08'1 1.2
2017-Oct-12 06:49N 38°11' E 024°06'5 9.6
2017-Oct-12 06:20N 38°11' E 024°12'0 0.0
2017-Oct-10 10:14N 38°11' E 024°12'310.0
2017-Oct-10 09:59N 38°11' E 024°09'2 2.1
2017-Oct-10 09:02N 38°11' E 024°07'010.1
2017-Oct-10 09:00N 38°11' E 024°07'2 1.7
2017-Oct-10 07:58N 38°11' E 024°09'2 1.9
2017-Oct-10 06:49N 38°11' E 024°06'5 9.7
2017-Oct-10 06:19N 38°11' E 024°12'2 2.9
2017-Oct-10 05:29N 38°11' E 024°09'2 1.6
2017-Oct-10 04:03N 38°11' E 024°06'110.0
2017-Oct-10 04:00N 38°11' E 024°07'4 0.4
2017-Oct-09 16:24N 38°11' E 024°12'4 9.9
2017-Oct-09 15:59N 38°11' E 024°07'0 0.3
2017-Oct-09 15:00N 38°11' E 024°07'  

Dump ship's entire track history